Time;durP1;ratioP1;P1;durP2;ratioP2;P2;SDS_P1;SDS_P2;PMS_P1;PMS_P2;Temp;Humidity;BMP_temperature;BMP_pressure;BME280_temperature;BME280_humidity;BME280_pressure;Samples;Min_cycle;Max_cycle;Signal;HPM_P1;HPM_P2
2022/11/30 00:03:18;;;;;;;;;;;;;;;7.05;100;102427.6;;;;-75
2022/11/30 00:07:18;;;;;;;10.2;5;;;;;;;;;;;;;-75
2022/11/30 00:08:19;;;;;;;;;;;;;;;7.02;100;102430.4;;;;-75
2022/11/30 00:13:18;;;;;;;;;;;;;;;7.01;100;102426.3;;;;-75
2022/11/30 00:18:19;;;;;;;;;;;;;;;7.01;100;102425.4;;;;-75
2022/11/30 00:23:18;;;;;;;;;;;;;;;6.99;100;102431;;;;-75
2022/11/30 00:28:18;;;;;;;;;;;;;;;6.96;100;102429.7;;;;-75
2022/11/30 00:33:18;;;;;;;;;;;;;;;6.94;100;102425.4;;;;-76
2022/11/30 00:37:18;;;;;;;8.2;4.2;;;;;;;;;;;;;-75
2022/11/30 00:38:20;;;;;;;;;;;;;;;6.92;100;102431.2;;;;-75
2022/11/30 00:43:19;;;;;;;;;;;;;;;6.93;100;102431.7;;;;-75
2022/11/30 00:48:19;;;;;;;;;;;;;;;6.88;100;102433.7;;;;-75
2022/11/30 00:53:18;;;;;;;;;;;;;;;6.89;100;102436.5;;;;-75
2022/11/30 00:58:19;;;;;;;;;;;;;;;6.87;100;102438.1;;;;-75
2022/11/30 01:03:19;;;;;;;;;;;;;;;6.85;100;102429.3;;;;-77
2022/11/30 01:07:18;;;;;;;9.4;4.8;;;;;;;;;;;;;-76
2022/11/30 01:08:18;;;;;;;;;;;;;;;6.86;100;102430.7;;;;-75
2022/11/30 01:13:18;;;;;;;;;;;;;;;6.87;100;102428;;;;-75
2022/11/30 01:18:19;;;;;;;;;;;;;;;6.88;100;102429;;;;-76
2022/11/30 01:23:18;;;;;;;;;;;;;;;6.9;100;102436;;;;-76
2022/11/30 01:28:18;;;;;;;;;;;;;;;6.9;100;102432.3;;;;-75
2022/11/30 01:33:18;;;;;;;;;;;;;;;6.9;100;102436.5;;;;-75
2022/11/30 01:37:18;;;;;;;10.2;5.3;;;;;;;;;;;;;-75
2022/11/30 01:38:18;;;;;;;;;;;;;;;6.93;100;102439;;;;-75
2022/11/30 01:43:19;;;;;;;;;;;;;;;6.93;100;102444.1;;;;-75
2022/11/30 01:48:20;;;;;;;;;;;;;;;6.92;100;102444.7;;;;-76
2022/11/30 01:53:19;;;;;;;;;;;;;;;6.93;100;102439.4;;;;-75
2022/11/30 01:58:22;;;;;;;;;;;;;;;6.94;100;102443.8;;;;-76
2022/11/30 02:03:21;;;;;;;;;;;;;;;6.93;100;102444.9;;;;-76
2022/11/30 02:07:18;;;;;;;10.4;5.8;;;;;;;;;;;;;-75
2022/11/30 02:08:19;;;;;;;;;;;;;;;6.93;100;102449.6;;;;-76
2022/11/30 02:13:30;;;;;;;;;;;;;;;6.93;100;102457.7;;;;-75
2022/11/30 02:18:22;;;;;;;;;;;;;;;6.93;100;102453.1;;;;-76
2022/11/30 02:23:32;;;;;;;;;;;;;;;6.95;100;102453.2;;;;-76
2022/11/30 02:28:26;;;;;;;;;;;;;;;6.94;100;102457.1;;;;-76
2022/11/30 02:33:21;;;;;;;;;;;;;;;6.94;100;102461.4;;;;-76
2022/11/30 02:37:19;;;;;;;12.2;6.1;;;;;;;;;;;;;-75
2022/11/30 02:38:21;;;;;;;;;;;;;;;6.93;100;102447;;;;-75
2022/11/30 02:43:21;;;;;;;;;;;;;;;6.92;100;102450.3;;;;-77
2022/11/30 02:48:21;;;;;;;;;;;;;;;6.93;100;102453;;;;-75
2022/11/30 02:53:19;;;;;;;;;;;;;;;6.92;100;102451.8;;;;-76
2022/11/30 02:58:20;;;;;;;;;;;;;;;6.93;100;102450.1;;;;-75
2022/11/30 03:03:18;;;;;;;;;;;;;;;6.92;100;102448.4;;;;-75
2022/11/30 03:07:21;;;;;;;13.5;6.8;;;;;;;;;;;;;-76
2022/11/30 03:08:18;;;;;;;;;;;;;;;6.9;100;102454.5;;;;-76
2022/11/30 03:13:18;;;;;;;;;;;;;;;6.91;100;102461.9;;;;-76
2022/11/30 03:18:18;;;;;;;;;;;;;;;6.91;100;102467.7;;;;-77
2022/11/30 03:23:18;;;;;;;;;;;;;;;6.91;100;102451;;;;-77
2022/11/30 03:28:18;;;;;;;;;;;;;;;6.89;100;102453.8;;;;-75
2022/11/30 03:33:18;;;;;;;;;;;;;;;6.89;100;102463.8;;;;-75
2022/11/30 03:37:18;;;;;;;14.2;7.2;;;;;;;;;;;;;-76
2022/11/30 03:38:18;;;;;;;;;;;;;;;6.88;100;102466.8;;;;-76
2022/11/30 03:43:18;;;;;;;;;;;;;;;6.87;100;102464.7;;;;-76
2022/11/30 03:48:18;;;;;;;;;;;;;;;6.87;100;102462.3;;;;-75
2022/11/30 03:53:18;;;;;;;;;;;;;;;6.85;100;102457.1;;;;-74
2022/11/30 03:58:18;;;;;;;;;;;;;;;6.83;100;102462.7;;;;-75
2022/11/30 04:03:18;;;;;;;;;;;;;;;6.84;100;102462.7;;;;-76
2022/11/30 04:07:18;;;;;;;14.5;7;;;;;;;;;;;;;-75
2022/11/30 04:08:19;;;;;;;;;;;;;;;6.84;100;102462.7;;;;-75
2022/11/30 04:13:18;;;;;;;;;;;;;;;6.81;100;102468.9;;;;-76
2022/11/30 04:18:18;;;;;;;;;;;;;;;6.79;100;102469.9;;;;-75
2022/11/30 04:23:18;;;;;;;;;;;;;;;6.79;100;102475;;;;-75
2022/11/30 04:28:19;;;;;;;;;;;;;;;6.77;100;102479.1;;;;-76
2022/11/30 04:33:19;;;;;;;;;;;;;;;6.76;100;102488.2;;;;-75
2022/11/30 04:37:18;;;;;;;14.1;7.1;;;;;;;;;;;;;-75
2022/11/30 04:38:18;;;;;;;;;;;;;;;6.75;100;102490.1;;;;-76
2022/11/30 04:43:18;;;;;;;;;;;;;;;6.74;100;102489.4;;;;-75
2022/11/30 04:48:19;;;;;;;;;;;;;;;6.73;100;102491.4;;;;-76
2022/11/30 04:53:18;;;;;;;;;;;;;;;6.73;100;102492.3;;;;-76
2022/11/30 04:58:18;;;;;;;;;;;;;;;6.71;100;102497.8;;;;-77
2022/11/30 05:03:18;;;;;;;;;;;;;;;6.7;100;102491;;;;-76
2022/11/30 05:07:18;;;;;;;12.9;6.9;;;;;;;;;;;;;-76
2022/11/30 05:08:19;;;;;;;;;;;;;;;6.69;100;102493.9;;;;-75
2022/11/30 05:13:18;;;;;;;;;;;;;;;6.68;100;102497.6;;;;-76
2022/11/30 05:18:18;;;;;;;;;;;;;;;6.67;100;102503.1;;;;-76
2022/11/30 05:23:18;;;;;;;;;;;;;;;6.67;100;102502.4;;;;-76
2022/11/30 05:28:18;;;;;;;;;;;;;;;6.67;100;102504.5;;;;-77
2022/11/30 05:33:18;;;;;;;;;;;;;;;6.66;100;102509;;;;-75
2022/11/30 05:37:18;;;;;;;11.9;6.3;;;;;;;;;;;;;-77
2022/11/30 05:38:18;;;;;;;;;;;;;;;6.65;100;102514.5;;;;-76
2022/11/30 05:43:18;;;;;;;;;;;;;;;6.65;100;102512.9;;;;-76
2022/11/30 05:48:18;;;;;;;;;;;;;;;6.65;100;102515.1;;;;-76
2022/11/30 05:53:18;;;;;;;;;;;;;;;6.64;100;102513.1;;;;-75
2022/11/30 05:58:18;;;;;;;;;;;;;;;6.63;100;102515.7;;;;-75
2022/11/30 06:03:18;;;;;;;;;;;;;;;6.63;100;102519.9;;;;-76
2022/11/30 06:07:18;;;;;;;13.1;6.9;;;;;;;;;;;;;-77
2022/11/30 06:08:18;;;;;;;;;;;;;;;6.63;100;102523;;;;-77
2022/11/30 06:13:19;;;;;;;;;;;;;;;6.61;100;102528;;;;-76
2022/11/30 06:18:19;;;;;;;;;;;;;;;6.59;100;102535.1;;;;-77
2022/11/30 06:23:18;;;;;;;;;;;;;;;6.55;100;102531.7;;;;-76
2022/11/30 06:28:19;;;;;;;;;;;;;;;6.54;100;102533.6;;;;-76
2022/11/30 06:33:18;;;;;;;;;;;;;;;6.48;100;102536.7;;;;-75
2022/11/30 06:37:18;;;;;;;11;5.9;;;;;;;;;;;;;-77
2022/11/30 06:38:18;;;;;;;;;;;;;;;6.44;100;102536;;;;-77
2022/11/30 06:43:18;;;;;;;;;;;;;;;6.39;100;102538.4;;;;-77
2022/11/30 06:48:21;;;;;;;;;;;;;;;6.33;100;102532.7;;;;-76
2022/11/30 06:53:18;;;;;;;;;;;;;;;6.28;100;102534;;;;-75
2022/11/30 06:58:18;;;;;;;;;;;;;;;6.24;100;102539.1;;;;-76
2022/11/30 07:03:18;;;;;;;;;;;;;;;6.19;100;102541.2;;;;-75
2022/11/30 07:07:19;;;;;;;12;6;;;;;;;;;;;;;-76
2022/11/30 07:08:19;;;;;;;;;;;;;;;6.13;100;102545.6;;;;-76
2022/11/30 07:13:20;;;;;;;;;;;;;;;6.08;100;102550.7;;;;-76
2022/11/30 07:18:19;;;;;;;;;;;;;;;6.03;100;102557.4;;;;-76
2022/11/30 07:28:19;;;;;;;;;;;;;;;5.99;100;102567.5;;;;-75
2022/11/30 07:33:18;;;;;;;;;;;;;;;5.97;100;102569;;;;-76
2022/11/30 07:37:18;;;;;;;11;6;;;;;;;;;;;;;-77
2022/11/30 07:38:18;;;;;;;;;;;;;;;5.98;100;102574.9;;;;-76
2022/11/30 07:43:18;;;;;;;;;;;;;;;5.97;100;102584.7;;;;-77
2022/11/30 07:48:18;;;;;;;;;;;;;;;5.97;100;102585.5;;;;-76
2022/11/30 07:53:19;;;;;;;;;;;;;;;5.99;100;102584.1;;;;-77
2022/11/30 07:58:18;;;;;;;;;;;;;;;6.01;100;102586.2;;;;-78
2022/11/30 08:03:18;;;;;;;;;;;;;;;6.03;100;102593.9;;;;-76
2022/11/30 08:07:18;;;;;;;11.8;6;;;;;;;;;;;;;-76
2022/11/30 08:08:18;;;;;;;;;;;;;;;6.04;100;102594.1;;;;-75
2022/11/30 08:13:18;;;;;;;;;;;;;;;6.05;100;102600.3;;;;-76
2022/11/30 08:18:19;;;;;;;;;;;;;;;6.07;100;102607;;;;-76
2022/11/30 08:23:18;;;;;;;;;;;;;;;6.12;100;102618.7;;;;-76
2022/11/30 08:28:18;;;;;;;;;;;;;;;6.15;100;102619.8;;;;-76
2022/11/30 08:33:18;;;;;;;;;;;;;;;6.2;100;102624;;;;-76
2022/11/30 08:37:18;;;;;;;11.6;5.8;;;;;;;;;;;;;-75
2022/11/30 08:38:18;;;;;;;;;;;;;;;6.26;100;102632.4;;;;-75
2022/11/30 08:43:18;;;;;;;;;;;;;;;6.33;100;102639.9;;;;-75
2022/11/30 08:48:18;;;;;;;;;;;;;;;6.4;100;102637;;;;-75
2022/11/30 08:53:18;;;;;;;;;;;;;;;6.45;100;102642.9;;;;-75
2022/11/30 08:58:18;;;;;;;;;;;;;;;6.52;100;102642.5;;;;-75
2022/11/30 09:03:18;;;;;;;;;;;;;;;6.59;100;102654.1;;;;-76
2022/11/30 09:07:18;;;;;;;13.7;6.3;;;;;;;;;;;;;-76
2022/11/30 09:08:18;;;;;;;;;;;;;;;6.65;100;102654.8;;;;-76
2022/11/30 09:13:18;;;;;;;;;;;;;;;6.75;100;102654.2;;;;-76
2022/11/30 09:18:18;;;;;;;;;;;;;;;6.81;100;102657.7;;;;-76
2022/11/30 09:23:18;;;;;;;;;;;;;;;6.9;100;102660.4;;;;-76
2022/11/30 09:28:18;;;;;;;;;;;;;;;6.95;100;102667.8;;;;-76
2022/11/30 09:33:18;;;;;;;;;;;;;;;6.99;100;102667.2;;;;-75
2022/11/30 09:37:17;;;;;;;13.1;7;;;;;;;;;;;;;-76
2022/11/30 09:38:18;;;;;;;;;;;;;;;7.04;100;102667.6;;;;-76
2022/11/30 09:43:27;;;;;;;;;;;;;;;7.09;100;102672.3;;;;-75
2022/11/30 09:48:27;;;;;;;;;;;;;;;7.12;100;102671.6;;;;-77
2022/11/30 09:53:21;;;;;;;;;;;;;;;7.18;100;102677.3;;;;-76
2022/11/30 09:58:22;;;;;;;;;;;;;;;7.21;100;102680.5;;;;-76
2022/11/30 10:03:26;;;;;;;;;;;;;;;7.25;99.98828;102683.7;;;;-76
2022/11/30 10:07:23;;;;;;;13.6;6.6;;;;;;;;;;;;;-76
2022/11/30 10:08:30;;;;;;;;;;;;;;;7.28;99.17773;102679.6;;;;-75
2022/11/30 10:13:26;;;;;;;;;;;;;;;7.3;99.34277;102682.2;;;;-76
2022/11/30 10:18:27;;;;;;;;;;;;;;;7.32;99.24023;102678.9;;;;-77
2022/11/30 10:23:26;;;;;;;;;;;;;;;7.33;99.24219;102678.1;;;;-76
2022/11/30 10:28:21;;;;;;;;;;;;;;;7.39;99.28809;102674.9;;;;-76
2022/11/30 10:33:19;;;;;;;;;;;;;;;7.5;99.11816;102672.5;;;;-76
2022/11/30 10:37:20;;;;;;;14.5;7.4;;;;;;;;;;;;;-76
2022/11/30 10:38:20;;;;;;;;;;;;;;;7.67;98.69629;102671.5;;;;-75
2022/11/30 10:43:24;;;;;;;;;;;;;;;7.81;98.06055;102669.3;;;;-77
2022/11/30 10:48:22;;;;;;;;;;;;;;;7.93;98.38379;102666.7;;;;-77
2022/11/30 10:53:18;;;;;;;;;;;;;;;7.96;98.3252;102666.8;;;;-76
2022/11/30 10:58:23;;;;;;;;;;;;;;;7.96;98.15137;102666.9;;;;-76
2022/11/30 11:03:29;;;;;;;;;;;;;;;7.99;97.72949;102662.1;;;;-77
2022/11/30 11:07:20;;;;;;;13.3;7;;;;;;;;;;;;;-75
2022/11/30 11:08:28;;;;;;;;;;;;;;;8.06;97.82227;102665.1;;;;-77
2022/11/30 11:13:22;;;;;;;;;;;;;;;8.17;98.22949;102665.4;;;;-76
2022/11/30 11:18:26;;;;;;;;;;;;;;;8.26;98.60254;102667.4;;;;-76
2022/11/30 11:23:30;;;;;;;;;;;;;;;8.25;98.14941;102669.6;;;;-76
2022/11/30 11:28:20;;;;;;;;;;;;;;;8.21;98.11914;102665.2;;;;-76
2022/11/30 11:33:25;;;;;;;;;;;;;;;8.19;97.3584;102668;;;;-77
2022/11/30 11:37:22;;;;;;;19.6;10.4;;;;;;;;;;;;;-78
2022/11/30 11:38:32;;;;;;;;;;;;;;;8.2;97.72168;102670.4;;;;-76
2022/11/30 11:43:22;;;;;;;;;;;;;;;8.31;98.15332;102667.5;;;;-76
2022/11/30 11:48:30;;;;;;;;;;;;;;;8.44;98.54297;102671.8;;;;-75
2022/11/30 11:53:30;;;;;;;;;;;;;;;8.56;98.56934;102662.1;;;;-76
2022/11/30 11:58:21;;;;;;;;;;;;;;;8.62;98.00293;102660.2;;;;-76
2022/11/30 12:03:22;;;;;;;;;;;;;;;8.65;97.44141;102666.6;;;;-77
2022/11/30 12:07:22;;;;;;;20.1;10.5;;;;;;;;;;;;;-76
2022/11/30 12:08:22;;;;;;;;;;;;;;;8.77;97.15918;102669.5;;;;-75
2022/11/30 12:13:20;;;;;;;;;;;;;;;8.87;96.90723;102669.1;;;;-75
2022/11/30 12:18:22;;;;;;;;;;;;;;;8.89;96.65918;102669.9;;;;-77
2022/11/30 12:23:28;;;;;;;;;;;;;;;8.8;96.56445;102668.1;;;;-75
2022/11/30 12:28:23;;;;;;;;;;;;;;;8.78;96.25098;102674.3;;;;-75
2022/11/30 12:33:22;;;;;;;;;;;;;;;8.84;96.24316;102673.2;;;;-76
2022/11/30 12:37:23;;;;;;;22.1;10.7;;;;;;;;;;;;;-76
2022/11/30 12:38:23;;;;;;;;;;;;;;;9;95.52051;102671.2;;;;-76
2022/11/30 12:43:25;;;;;;;;;;;;;;;9.13;95.6377;102671.1;;;;-75
2022/11/30 12:48:23;;;;;;;;;;;;;;;9.13;95.48438;102669.5;;;;-76
2022/11/30 12:53:23;;;;;;;;;;;;;;;9.11;95.17285;102676.8;;;;-75
2022/11/30 12:58:24;;;;;;;;;;;;;;;9.09;95.03516;102681;;;;-74
2022/11/30 13:03:32;;;;;;;;;;;;;;;9.06;95.3916;102671.5;;;;-76
2022/11/30 13:07:25;;;;;;;21.1;10.8;;;;;;;;;;;;;-76
2022/11/30 13:08:22;;;;;;;;;;;;;;;9.03;95.3418;102677.4;;;;-76
2022/11/30 13:13:24;;;;;;;;;;;;;;;8.97;95.22852;102674.7;;;;-76
2022/11/30 13:18:20;;;;;;;;;;;;;;;8.93;95.16602;102680.7;;;;-75
2022/11/30 13:23:21;;;;;;;;;;;;;;;8.93;95.36133;102685.5;;;;-75
2022/11/30 13:28:28;;;;;;;;;;;;;;;8.89;95.38672;102687.1;;;;-75
2022/11/30 13:33:45;;;;;;;;;;;;;;;8.83;95.2959;102684.1;;;;-76
2022/11/30 13:37:21;;;;;;;24.1;12;;;;;;;;;;;;;-76
2022/11/30 13:38:22;;;;;;;;;;;;;;;8.79;95.29883;102686.7;;;;-76
2022/11/30 13:43:24;;;;;;;;;;;;;;;8.74;95.54102;102689;;;;-76
2022/11/30 13:48:33;;;;;;;;;;;;;;;8.7;95.43457;102687.9;;;;-76
2022/11/30 13:53:26;;;;;;;;;;;;;;;8.67;96.21582;102687.5;;;;-74
2022/11/30 13:58:19;;;;;;;;;;;;;;;8.62;96.16016;102691.5;;;;-76
2022/11/30 14:03:27;;;;;;;;;;;;;;;8.56;97.10156;102698.2;;;;-75
2022/11/30 14:07:32;;;;;;;24.4;12.1;;;;;;;;;;;;;-75
2022/11/30 14:08:20;;;;;;;;;;;;;;;8.49;97.84082;102702.5;;;;-75
2022/11/30 14:13:32;;;;;;;;;;;;;;;8.43;98.21289;102706.7;;;;-75
2022/11/30 14:18:23;;;;;;;;;;;;;;;8.37;97.77148;102705.1;;;;-75
2022/11/30 14:23:22;;;;;;;;;;;;;;;8.33;98.16797;102705.8;;;;-75
2022/11/30 14:28:20;;;;;;;;;;;;;;;8.27;97.94531;102707.6;;;;-75
2022/11/30 14:33:20;;;;;;;;;;;;;;;8.2;98.20313;102713.3;;;;-75
2022/11/30 14:37:24;;;;;;;24.3;12.3;;;;;;;;;;;;;-75
2022/11/30 14:38:27;;;;;;;;;;;;;;;8.12;98.26074;102715.9;;;;-75
2022/11/30 14:43:21;;;;;;;;;;;;;;;8.05;98.3584;102719.7;;;;-75
2022/11/30 14:48:18;;;;;;;;;;;;;;;7.99;98.53906;102722.2;;;;-74
2022/11/30 14:53:25;;;;;;;;;;;;;;;7.92;98.92676;102718;;;;-75
2022/11/30 14:58:23;;;;;;;;;;;;;;;7.83;99.30371;102716.4;;;;-74
2022/11/30 15:03:32;;;;;;;;;;;;;;;7.71;99.5918;102715.7;;;;-75
2022/11/30 15:07:22;;;;;;;25.1;12.4;;;;;;;;;;;;;-74
2022/11/30 15:08:20;;;;;;;;;;;;;;;7.59;99.82715;102717.9;;;;-75
2022/11/30 15:13:25;;;;;;;;;;;;;;;7.48;100;102720.9;;;;-75
2022/11/30 15:18:22;;;;;;;;;;;;;;;7.36;99.80762;102729.9;;;;-76
2022/11/30 15:23:20;;;;;;;;;;;;;;;7.22;99.76367;102741.9;;;;-76
2022/11/30 15:28:21;;;;;;;;;;;;;;;7.09;99.81934;102741.5;;;;-75
2022/11/30 15:33:22;;;;;;;;;;;;;;;6.97;100;102738.8;;;;-75
2022/11/30 15:37:21;;;;;;;25.6;12;;;;;;;;;;;;;-76
2022/11/30 15:38:21;;;;;;;;;;;;;;;6.84;100;102735;;;;-76
2022/11/30 15:43:23;;;;;;;;;;;;;;;6.73;100;102735.2;;;;-76
2022/11/30 15:48:30;;;;;;;;;;;;;;;6.64;100;102751.3;;;;-75
2022/11/30 15:53:30;;;;;;;;;;;;;;;6.45;100;102755.6;;;;-76
2022/11/30 15:58:32;;;;;;;;;;;;;;;6.36;100;102756.1;;;;-75
2022/11/30 16:03:18;;;;;;;;;;;;;;;6.21;100;102761.3;;;;-75
2022/11/30 16:07:22;;;;;;;22;10.2;;;;;;;;;;;;;-75
2022/11/30 16:08:21;;;;;;;;;;;;;;;6.09;100;102757.6;;;;-75
2022/11/30 16:13:20;;;;;;;;;;;;;;;5.97;100;102766.9;;;;-75
2022/11/30 16:18:20;;;;;;;;;;;;;;;5.87;100;102774.2;;;;-76
2022/11/30 16:23:22;;;;;;;;;;;;;;;5.73;100;102773.7;;;;-75
2022/11/30 16:28:19;;;;;;;;;;;;;;;5.65;100;102780.6;;;;-74
2022/11/30 16:33:20;;;;;;;;;;;;;;;5.52;100;102789.3;;;;-76
2022/11/30 16:37:22;;;;;;;22.6;9.9;;;;;;;;;;;;;-75
2022/11/30 16:38:20;;;;;;;;;;;;;;;5.44;100;102793.3;;;;-76
2022/11/30 16:43:18;;;;;;;;;;;;;;;5.33;100;102799.9;;;;-74
2022/11/30 16:48:18;;;;;;;;;;;;;;;5.28;100;102799;;;;-75
2022/11/30 16:53:18;;;;;;;;;;;;;;;5.17;100;102798;;;;-75
2022/11/30 16:58:18;;;;;;;;;;;;;;;5.09;100;102805.2;;;;-76
2022/11/30 17:03:22;;;;;;;;;;;;;;;5.04;100;102812.2;;;;-74
2022/11/30 17:07:21;;;;;;;23.6;10;;;;;;;;;;;;;-75
2022/11/30 17:08:18;;;;;;;;;;;;;;;5.03;100;102815.6;;;;-74
2022/11/30 17:13:21;;;;;;;;;;;;;;;5.05;100;102821.5;;;;-75
2022/11/30 17:18:18;;;;;;;;;;;;;;;5.05;100;102827.9;;;;-75
2022/11/30 17:23:18;;;;;;;;;;;;;;;5.01;100;102832.7;;;;-76
2022/11/30 17:28:18;;;;;;;;;;;;;;;4.95;100;102834.9;;;;-75
2022/11/30 17:33:18;;;;;;;;;;;;;;;4.89;100;102831.5;;;;-76
2022/11/30 17:37:21;;;;;;;22.1;9.5;;;;;;;;;;;;;-76
2022/11/30 17:38:18;;;;;;;;;;;;;;;4.83;100;102833.5;;;;-75
2022/11/30 17:43:18;;;;;;;;;;;;;;;4.75;100;102823.9;;;;-76
2022/11/30 17:48:18;;;;;;;;;;;;;;;4.67;100;102828.4;;;;-75
2022/11/30 17:53:18;;;;;;;;;;;;;;;4.58;100;102838;;;;-75
2022/11/30 17:58:18;;;;;;;;;;;;;;;4.55;100;102847.5;;;;-72
2022/11/30 18:03:18;;;;;;;;;;;;;;;4.46;100;102856;;;;-75
2022/11/30 18:07:20;;;;;;;22.9;9.1;;;;;;;;;;;;;-75
2022/11/30 18:08:18;;;;;;;;;;;;;;;4.44;100;102856.4;;;;-75
2022/11/30 18:13:18;;;;;;;;;;;;;;;4.45;100;102866.6;;;;-74
2022/11/30 18:18:18;;;;;;;;;;;;;;;4.48;100;102868.5;;;;-75
2022/11/30 18:23:18;;;;;;;;;;;;;;;4.51;100;102867.1;;;;-76
2022/11/30 18:28:18;;;;;;;;;;;;;;;4.58;100;102871;;;;-76
2022/11/30 18:33:18;;;;;;;;;;;;;;;4.6;100;102875.1;;;;-76
2022/11/30 18:37:20;;;;;;;21.8;9.5;;;;;;;;;;;;;-76
2022/11/30 18:38:18;;;;;;;;;;;;;;;4.64;100;102876.2;;;;-76
2022/11/30 18:43:21;;;;;;;;;;;;;;;4.67;100;102872.8;;;;-75
2022/11/30 18:48:20;;;;;;;;;;;;;;;4.68;100;102875.8;;;;-76
2022/11/30 18:53:19;;;;;;;;;;;;;;;4.68;100;102879.7;;;;-76
2022/11/30 18:58:20;;;;;;;;;;;;;;;4.58;100;102875.3;;;;-77
2022/11/30 19:03:19;;;;;;;;;;;;;;;4.58;100;102885;;;;-76
2022/11/30 19:07:20;;;;;;;23.4;9.9;;;;;;;;;;;;;-76
2022/11/30 19:08:20;;;;;;;;;;;;;;;4.53;100;102884.5;;;;-77
2022/11/30 19:13:28;;;;;;;;;;;;;;;4.56;100;102887.1;;;;-77
2022/11/30 19:23:22;;;;;;;;;;;;;;;4.65;100;102888.5;;;;-76
2022/11/30 19:28:20;;;;;;;;;;;;;;;4.67;100;102890.5;;;;-76
2022/11/30 19:33:19;;;;;;;;;;;;;;;4.68;100;102894.5;;;;-77
2022/11/30 19:37:19;;;;;;;23.1;9.8;;;;;;;;;;;;;-76
2022/11/30 19:38:18;;;;;;;;;;;;;;;4.74;100;102902.4;;;;-76
2022/11/30 19:43:18;;;;;;;;;;;;;;;4.76;100;102905.9;;;;-75
2022/11/30 19:48:18;;;;;;;;;;;;;;;4.79;100;102904;;;;-76
2022/11/30 19:53:19;;;;;;;;;;;;;;;4.82;100;102910.3;;;;-77
2022/11/30 19:58:19;;;;;;;;;;;;;;;4.85;100;102914.6;;;;-75
2022/11/30 20:03:18;;;;;;;;;;;;;;;4.88;100;102918.7;;;;-75
2022/11/30 20:07:21;;;;;;;25;9.7;;;;;;;;;;;;;-77
2022/11/30 20:08:18;;;;;;;;;;;;;;;4.93;100;102918.9;;;;-74
2022/11/30 20:13:18;;;;;;;;;;;;;;;4.96;100;102919;;;;-75
2022/11/30 20:18:18;;;;;;;;;;;;;;;4.97;100;102926.1;;;;-77
2022/11/30 20:23:18;;;;;;;;;;;;;;;5.02;100;102933.6;;;;-75
2022/11/30 20:28:18;;;;;;;;;;;;;;;5.03;100;102932.9;;;;-76
2022/11/30 20:33:18;;;;;;;;;;;;;;;5.07;100;102934.1;;;;-75
2022/11/30 20:37:18;;;;;;;23.7;10.2;;;;;;;;;;;;;-75
2022/11/30 20:38:18;;;;;;;;;;;;;;;5.08;100;102935.9;;;;-76
2022/11/30 20:43:19;;;;;;;;;;;;;;;5.11;100;102937.6;;;;-76
2022/11/30 20:48:18;;;;;;;;;;;;;;;5.12;100;102929;;;;-77
2022/11/30 20:53:18;;;;;;;;;;;;;;;5.14;100;102932.6;;;;-77
2022/11/30 20:58:18;;;;;;;;;;;;;;;5.13;100;102925.3;;;;-76
2022/11/30 21:03:18;;;;;;;;;;;;;;;5.13;100;102920;;;;-76
2022/11/30 21:07:18;;;;;;;23.8;10.1;;;;;;;;;;;;;-77
2022/11/30 21:08:18;;;;;;;;;;;;;;;5.1;100;102915.6;;;;-77
2022/11/30 21:13:18;;;;;;;;;;;;;;;5.09;100;102918.7;;;;-75
2022/11/30 21:18:18;;;;;;;;;;;;;;;5.1;100;102929.1;;;;-75
2022/11/30 21:23:18;;;;;;;;;;;;;;;5.09;100;102931.6;;;;-76
2022/11/30 21:28:19;;;;;;;;;;;;;;;5.04;100;102926.9;;;;-75
2022/11/30 21:33:18;;;;;;;;;;;;;;;5.05;100;102925.7;;;;-76
2022/11/30 21:37:17;;;;;;;27.2;10.8;;;;;;;;;;;;;-76
2022/11/30 21:38:18;;;;;;;;;;;;;;;5.02;100;102923.9;;;;-75
2022/11/30 21:43:18;;;;;;;;;;;;;;;5;100;102919.9;;;;-76
2022/11/30 21:48:19;;;;;;;;;;;;;;;4.98;100;102932.4;;;;-75
2022/11/30 21:53:18;;;;;;;;;;;;;;;4.89;100;102932;;;;-76
2022/11/30 21:58:18;;;;;;;;;;;;;;;4.82;100;102943.9;;;;-75
2022/11/30 22:03:18;;;;;;;;;;;;;;;4.73;100;102928.2;;;;-75
2022/11/30 22:07:30;;;;;;;26.8;10;;;;;;;;;;;;;-76
2022/11/30 22:08:20;;;;;;;;;;;;;;;4.65;100;102937.5;;;;-76
2022/11/30 22:13:18;;;;;;;;;;;;;;;4.59;100;102935.2;;;;-76
2022/11/30 22:18:18;;;;;;;;;;;;;;;4.49;100;102946.4;;;;-76
2022/11/30 22:23:18;;;;;;;;;;;;;;;4.41;100;102946.3;;;;-75
2022/11/30 22:28:18;;;;;;;;;;;;;;;4.32;100;102940.6;;;;-75
2022/11/30 22:33:20;;;;;;;;;;;;;;;4.2;100;102939.4;;;;-75
2022/11/30 22:37:16;;;;;;;27.1;10.4;;;;;;;;;;;;;-74
2022/11/30 22:38:18;;;;;;;;;;;;;;;4.12;100;102953;;;;-74
2022/11/30 22:43:18;;;;;;;;;;;;;;;4.03;100;102950.9;;;;-75
2022/11/30 22:48:18;;;;;;;;;;;;;;;3.99;100;102951.2;;;;-75
2022/11/30 22:53:18;;;;;;;;;;;;;;;3.89;100;102948;;;;-74
2022/11/30 22:58:18;;;;;;;;;;;;;;;3.87;100;102959.3;;;;-75
2022/11/30 23:03:18;;;;;;;;;;;;;;;3.82;99.8623;102953.4;;;;-76
2022/11/30 23:07:16;;;;;;;27.1;10.8;;;;;;;;;;;;;-76
2022/11/30 23:08:18;;;;;;;;;;;;;;;3.84;100;102953.1;;;;-75
2022/11/30 23:13:21;;;;;;;;;;;;;;;3.83;100;102965.6;;;;-75
2022/11/30 23:18:18;;;;;;;;;;;;;;;3.85;100;102967.8;;;;-75
2022/11/30 23:23:18;;;;;;;;;;;;;;;3.91;100;102967.3;;;;-75
2022/11/30 23:28:18;;;;;;;;;;;;;;;3.92;100;102967.5;;;;-75
2022/11/30 23:33:18;;;;;;;;;;;;;;;3.94;100;102972.3;;;;-75
2022/11/30 23:37:15;;;;;;;25.4;10.4;;;;;;;;;;;;;-76
2022/11/30 23:38:18;;;;;;;;;;;;;;;3.98;100;102975.6;;;;-76
2022/11/30 23:43:18;;;;;;;;;;;;;;;3.99;100;102973.7;;;;-76
2022/11/30 23:48:18;;;;;;;;;;;;;;;4.03;100;102970.3;;;;-75
2022/11/30 23:53:18;;;;;;;;;;;;;;;4.05;100;102968.1;;;;-75
2022/11/30 23:58:21;;;;;;;;;;;;;;;4.09;100;102963.7;;;;-76
